Pagina principale
METAR-TAF:

METAR-TAF

Aeroporti :

Aeroporto di Madera

Funchal, Madera, Portogallo

latitudine: 32-41-52N, longitudine: 016-46-28W, altezza: 59 m

Osservazione

Il bollettino è stato emesso 39 minuti fa, alle 17:00 UTC
Vento 16 kt da nord/nord-est
Temperature 24°C
Umidità 69%
Pressione 1020 hPa
Visibilità 10 km o più
Poco nuvoloso ad un'altezza di 1600 ft

METAR: LPMA 141700Z 03016KT 9999 FEW016 24/18 Q1020

Ora: 18:39 (17:39 UTC)

Previsione

Il bollettino è stato emesso 39 minuti fa, alle 17:00 UTC
Previsione valida dal 14 alle 18 UTC al 15 alle 18 UTC
Vento 18 kt da nord/nord-est
Visibilità 10 km o più
Nubi sparse ad un'altezza di 1600 ft
Probabilità 40% :
Temporaneamente
dal 14 alle 18 UTC al 15 alle 18 UTC
Vento 20 kt da nord/nord-est con raffiche fino a 32 kt

TAF: LPMA 141700Z 1418/1518 03018KT 9999 SCT016 PROB40 TEMPO 1418/1518 03020G32KT

Osservazioni e previsioni meteorologiche di più di 4000 aeroporti (messaggi METAR e TAF).

Le stazioni disponibili sono rappresentate dai dischi gialli e rossi sulla carta.

Puntare il mouse per vedere il nome della stazione.

Clicca sopra per visualizzare le osservazioni e previsioni meteorologiche.

Per cambiare la mappa : fare clic sui pulsanti verdi con una croce nera per ingrandire, il pulsante verde con un trattino per diminuire, o sulla freccia verde per le mappe adiacenti.


METAR-TAF: